sim
Sign-in with your pilot id or email,
or register
Callsign
Passwort

Schedule Details

Flight Number: OEO7247
Departure: Stockholm Arlanda Airport (ESSA) at 06:50
Arrival: Munich Airport (EDDM) at 09:30

Weather Information
Getting current METAR information for ESSA 231150Z 18012KT CAVOK 18/11 Q1001 NOSIG
Getting current METAR information for EDDM 231150Z 24006KT 220V320 9999 FEW010 BKN030 18/16 Q1010 TEMPO SHRA BKN020CB

Schedule Frequency

Route Map